Aeroporto :
LOGIN :

Iscrizione | Disclaimer

   EN    FR    IT 

 










Sommario :    VFR   VFR Marginale   IFR   IFR Intensivo   IFR Molto Intensivo
Visibilità : 
Base nubi : 
>= 8 km
>= 3000ft
5 / 8 km
1000 / 3000 ft
1500m / 5 km
500 / 1000 ft
800 / 1500m
200 / 500 ft
< 800m
< 200 ft
Simboli :   Temporali  Nebbia  Neve Forte  Precipitazioni Forti  Vento > 20 kt
SIGMETs :   Varie  Temporali  Ghiacco  Turbolenza  Onda orograficha  Ceneri Vulcaniche







- Altitudine del aeroporto : 124 ft
- Codice IATA : RNS
- Carte del aeroporto


LFRN - Rennes

ULTIMO METAR :
  • 230700Z AUTO 30002KT CAVOK 14/14 Q1024 NOSIG

METARs OBSOLETI :
  • 230630Z AUTO 32002KT 9000 NSC 12/12 Q1024 NOSIG
  • 230600Z AUTO 33002KT 4700 1000 R28/P2000 R10/1400U BR NSC 11/11 Q1024 BECMG 9999 NSW
  • 230530Z AUTO 33002KT 3300 0450 R28/P2000 R10/0550D BCFG NSC 11/11 Q1023 BECMG 9999 NSW
  • 230500Z AUTO 06002KT 9999 0250 R28/P2000 R10/0200D BCFG NSC 12/12 Q1023 TEMPO 0500 BCFG
  • 230430Z AUTO 34001KT 2300 R10/1100U BR NSC 12/11 Q1024 BECMG 9999 NSW

TAF TAF LFRN
Valido dal 23 a 06 ore il 24 a 06 ore UTC


230500Z 2306/2406 VRB04KT CAVOK
TEMPO 2306/2307 0500 BCFG
BECMG 2308/2310 11008KT
BECMG 2316/2318 05006KT
ATIS : +33 2 99 67 72 50
Nessun NOTAM noto per questo aeroporto.



MetMap, La meteo Aeronautica in un colpo d'occhio ! - Copyright ORBIFLY Dicembre 2007 - Disclaimer

ORBIFLY MET'MAP TEAM :

Programmazione e sviluppo : Alexandra Zaïnal
Concezione e sviluppo : Baudouin d'Aumeries
Co-Programmazione e sviluppo : Marc-Olivier Méhu
Supporto tecnico e logistico : Manuel Goepfert
Aiuto per la traduzione : Arnaldo La Scala

Contatto : metmap@orbifly.com




FONTI E CREDITI :

   NOAA